Time;durP1;ratioP1;P1;durP2;ratioP2;P2;SDS_P1;SDS_P2;PMS_P1;PMS_P2;Temp;Humidity;BMP_temperature;BMP_pressure;BME280_temperature;BME280_humidity;BME280_pressure;Samples;Min_cycle;Max_cycle;Signal;HPM_P1;HPM_P2
2021/12/09 00:01:28;;;;;;;29.38;13.70;;;;;;;;;;5035023;28;20159;-63
2021/12/09 00:03:57;;;;;;;25.77;13.07;;;;;;;;;;5033844;28;20056;-63
2021/12/09 00:06:27;;;;;;;24.30;13.10;;;;;;;;;;5042344;28;20045;-63
2021/12/09 00:08:54;;;;;;;26.05;13.25;;;;;;;;;;5037036;28;20080;-63
2021/12/09 00:11:21;;;;;;;27.02;12.23;;;;;;;;;;5043961;28;20494;-63
2021/12/09 00:13:50;;;;;;;25.45;13.50;;;;;;;;;;5036796;28;20090;-63
2021/12/09 00:16:16;;;;;;;26.05;13.70;;;;;;;;;;5038334;28;20179;-63
2021/12/09 00:18:43;;;;;;;18.88;10.52;;;;;;;;;;5032938;28;20147;-63
2021/12/09 00:21:10;;;;;;;22.35;12.90;;;;;;;;;;5040964;28;20235;-63
2021/12/09 00:23:36;;;;;;;25.23;13.70;;;;;;;;;;5035489;28;20148;-63
2021/12/09 00:26:03;;;;;;;26.35;14.50;;;;;;;;;;5040658;28;20079;-63
2021/12/09 00:28:29;;;;;;;24.83;14.07;;;;;;;;;;5041105;28;20131;-63
2021/12/09 00:30:56;;;;;;;27.35;14.90;;;;;;;;;;5035982;28;20128;-63
2021/12/09 00:33:23;;;;;;;28.07;14.60;;;;;;;;;;5039380;28;20057;-63
2021/12/09 00:36:00;;;;;;;27.88;14.80;;;;;;;;;;5039200;28;20370;-63
2021/12/09 00:38:35;;;;;;;26.52;14.52;;;;;;;;;;5042731;28;20493;-63
2021/12/09 00:41:03;;;;;;;29.58;14.65;;;;;;;;;;5037514;28;20049;-63
2021/12/09 00:43:30;;;;;;;27.70;14.93;;;;;;;;;;5035633;28;20136;-63
2021/12/09 00:45:57;;;;;;;32.35;15.60;;;;;;;;;;5033972;28;20073;-63
2021/12/09 00:48:24;;;;;;;21.60;11.15;;;;;;;;;;5040726;28;20045;-63
2021/12/09 00:50:52;;;;;;;28.35;14.73;;;;;;;;;;5042028;28;20524;-63
2021/12/09 00:53:18;;;;;;;26.80;15.35;;;;;;;;;;5044676;28;20132;-63
2021/12/09 00:55:45;;;;;;;30.88;14.30;;;;;;;;;;5046973;28;20076;-63
2021/12/09 00:58:12;;;;;;;28.85;15.05;;;;;;;;;;5043295;28;20539;-63
2021/12/09 01:00:38;;;;;;;29.57;16.03;;;;;;;;;;5039895;28;20167;-63
2021/12/09 01:03:05;;;;;;;22.73;11.70;;;;;;;;;;5043451;28;20046;-63
2021/12/09 01:05:32;;;;;;;26.95;15.38;;;;;;;;;;5041733;28;20128;-63
2021/12/09 01:07:58;;;;;;;29.23;15.47;;;;;;;;;;5041432;28;20077;-63
2021/12/09 01:10:25;;;;;;;29.45;15.55;;;;;;;;;;5038502;28;20350;-63
2021/12/09 01:12:52;;;;;;;30.33;15.30;;;;;;;;;;5045106;28;20232;-63
2021/12/09 01:15:19;;;;;;;25.90;13.60;;;;;;;;;;5047000;28;20134;-63
2021/12/09 01:17:46;;;;;;;27.00;14.88;;;;;;;;;;5039094;28;20038;-63
2021/12/09 01:20:14;;;;;;;29.90;13.80;;;;;;;;;;5039816;28;20089;-63
2021/12/09 01:22:43;;;;;;;30.58;15.40;;;;;;;;;;5043286;28;20140;-63
2021/12/09 01:25:10;;;;;;;26.80;14.50;;;;;;;;;;5043927;28;20053;-62
2021/12/09 01:27:40;;;;;;;26.23;14.85;;;;;;;;;;5047210;28;20080;-63
2021/12/09 01:30:12;;;;;;;30.15;15.55;;;;;;;;;;5039314;28;20136;-63
2021/12/09 01:32:42;;;;;;;24.38;12.55;;;;;;;;;;5040945;28;20041;-63
2021/12/09 01:35:09;;;;;;;28.17;14.07;;;;;;;;;;5043070;28;20120;-63
2021/12/09 01:37:36;;;;;;;24.88;13.05;;;;;;;;;;5044215;28;20465;-63
2021/12/09 01:40:04;;;;;;;31.02;15.95;;;;;;;;;;5040238;28;20143;-62
2021/12/09 01:42:31;;;;;;;;;;;;;;;;;;5041676;28;20132;-63
2021/12/09 01:44:57;;;;;;;28.05;14.20;;;;;;;;;;5044142;28;20011;-63
2021/12/09 01:47:24;;;;;;;18.88;10.70;;;;;;;;;;5042876;28;20128;-63
2021/12/09 01:49:50;;;;;;;28.60;14.63;;;;;;;;;;5041676;28;20057;-63
2021/12/09 01:52:17;;;;;;;23.50;13.02;;;;;;;;;;5042618;28;20045;-63
2021/12/09 01:54:44;;;;;;;28.67;14.65;;;;;;;;;;5042509;28;20056;-63
2021/12/09 01:57:11;;;;;;;26.15;14.20;;;;;;;;;;5041405;28;20471;-63
2021/12/09 01:59:37;;;;;;;29.15;15.98;;;;;;;;;;5040845;28;20092;-63
2021/12/09 02:02:04;;;;;;;28.10;14.60;;;;;;;;;;5039777;28;20156;-63
2021/12/09 02:04:31;;;;;;;24.00;12.07;;;;;;;;;;5047558;28;20092;-63
2021/12/09 02:06:57;;;;;;;22.43;9.90;;;;;;;;;;5038485;28;20132;-63
2021/12/09 02:09:24;;;;;;;27.95;13.48;;;;;;;;;;5041668;28;20095;-63
2021/12/09 02:11:51;;;;;;;20.23;11.00;;;;;;;;;;5041136;28;20092;-63
2021/12/09 02:14:17;;;;;;;27.08;12.70;;;;;;;;;;5040865;28;20176;-63
2021/12/09 02:16:44;;;;;;;24.57;11.63;;;;;;;;;;5041891;28;20524;-62
2021/12/09 02:19:12;;;;;;;23.77;10.47;;;;;;;;;;5031691;28;20378;-63
2021/12/09 02:21:38;;;;;;;26.63;12.60;;;;;;;;;;5039991;28;20073;-63
2021/12/09 02:24:07;;;;;;;20.00;11.60;;;;;;;;;;5040963;28;20088;-63
2021/12/09 02:26:41;;;;;;;27.92;13.50;;;;;;;;;;5044793;28;20092;-63
2021/12/09 02:29:10;;;;;;;26.85;13.95;;;;;;;;;;5039906;28;20129;-63
2021/12/09 02:31:38;;;;;;;25.67;12.07;;;;;;;;;;5042286;28;20466;-63
2021/12/09 02:34:06;;;;;;;28.55;15.40;;;;;;;;;;5044119;28;20052;-63
2021/12/09 02:36:37;;;;;;;26.70;14.65;;;;;;;;;;5040624;28;20049;-62
2021/12/09 02:39:04;;;;;;;24.25;12.65;;;;;;;;;;5033294;28;20085;-63
2021/12/09 02:41:32;;;;;;;25.50;10.13;;;;;;;;;;5034737;28;20127;-63
2021/12/09 02:44:03;;;;;;;19.35;10.05;;;;;;;;;;5038726;28;20129;-63
2021/12/09 02:46:35;;;;;;;26.42;12.65;;;;;;;;;;5037277;28;20462;-63
2021/12/09 02:49:06;;;;;;;27.50;13.85;;;;;;;;;;5029905;28;20049;-63
2021/12/09 02:51:33;;;;;;;23.30;11.40;;;;;;;;;;5042329;28;20099;-63
2021/12/09 02:53:59;;;;;;;26.75;13.43;;;;;;;;;;5045148;28;20084;-63
2021/12/09 02:56:26;;;;;;;27.88;13.45;;;;;;;;;;5036702;28;20148;-63
2021/12/09 02:58:53;;;;;;;18.57;9.73;;;;;;;;;;5038824;28;20124;-62
2021/12/09 03:01:21;;;;;;;26.27;13.60;;;;;;;;;;5041596;28;20447;-63
2021/12/09 03:03:55;;;;;;;25.60;13.30;;;;;;;;;;5035672;28;20087;-62
2021/12/09 03:06:27;;;;;;;25.42;14.30;;;;;;;;;;5039788;28;20091;-63
2021/12/09 03:08:53;;;;;;;26.52;13.40;;;;;;;;;;5040703;28;20126;-63
2021/12/09 03:11:22;;;;;;;26.27;13.60;;;;;;;;;;5043972;28;20049;-63
2021/12/09 03:13:50;;;;;;;29.58;14.68;;;;;;;;;;5044197;28;20131;-63
2021/12/09 03:16:19;;;;;;;27.52;12.45;;;;;;;;;;5043209;28;20080;-63
2021/12/09 03:18:47;;;;;;;26.90;14.60;;;;;;;;;;5039247;28;20053;-63
2021/12/09 03:21:15;;;;;;;24.55;13.65;;;;;;;;;;5041627;28;20048;-63
2021/12/09 03:23:42;;;;;;;26.52;13.90;;;;;;;;;;5040115;28;20136;-63
2021/12/09 03:26:09;;;;;;;28.08;14.30;;;;;;;;;;5040723;28;20051;-63
2021/12/09 03:28:35;;;;;;;26.33;13.93;;;;;;;;;;5042627;28;20128;-63
2021/12/09 03:31:03;;;;;;;26.30;13.93;;;;;;;;;;5042257;28;20284;-63
2021/12/09 03:33:29;;;;;;;26.60;13.50;;;;;;;;;;5037395;28;20053;-62
2021/12/09 03:35:58;;;;;;;29.55;13.93;;;;;;;;;;5039192;28;20144;-62
2021/12/09 03:38:25;;;;;;;26.67;13.90;;;;;;;;;;5040980;28;20083;-63
2021/12/09 03:40:52;;;;;;;27.88;14.00;;;;;;;;;;5041577;28;20045;-62
2021/12/09 03:43:18;;;;;;;25.17;13.85;;;;;;;;;;5035031;28;20585;-63
2021/12/09 03:45:45;;;;;;;27.05;13.32;;;;;;;;;;5034682;28;20128;-63
2021/12/09 03:48:12;;;;;;;26.13;14.18;;;;;;;;;;5037236;28;20080;-63
2021/12/09 03:50:39;;;;;;;25.05;13.98;;;;;;;;;;5040664;28;20045;-63
2021/12/09 03:53:06;;;;;;;29.38;14.77;;;;;;;;;;5037331;28;20328;-63
2021/12/09 03:55:32;;;;;;;27.13;14.80;;;;;;;;;;5037430;28;20091;-63
2021/12/09 03:57:59;;;;;;;29.17;15.10;;;;;;;;;;5042905;28;20124;-63
2021/12/09 04:00:28;;;;;;;28.80;14.70;;;;;;;;;;5040697;28;20476;-63
2021/12/09 04:02:54;;;;;;;26.15;13.73;;;;;;;;;;5035307;28;20064;-63
2021/12/09 04:05:21;;;;;;;21.83;10.73;;;;;;;;;;5039847;28;20089;-63
2021/12/09 04:07:47;;;;;;;23.30;13.05;;;;;;;;;;5042383;28;20136;-63
2021/12/09 04:10:14;;;;;;;25.70;13.57;;;;;;;;;;5042457;28;20162;-63
2021/12/09 04:12:40;;;;;;;32.80;14.75;;;;;;;;;;5019786;28;20569;-63
2021/12/09 04:15:07;;;;;;;29.15;14.73;;;;;;;;;;5039006;28;20092;-63
2021/12/09 04:17:34;;;;;;;22.58;12.18;;;;;;;;;;5039593;28;20164;-63
2021/12/09 04:20:01;;;;;;;27.80;15.20;;;;;;;;;;5039195;28;20063;-62
2021/12/09 04:22:27;;;;;;;27.27;15.32;;;;;;;;;;5035803;28;20136;-63
2021/12/09 04:24:54;;;;;;;22.00;11.68;;;;;;;;;;5036976;28;20141;-63
2021/12/09 04:27:21;;;;;;;27.77;14.70;;;;;;;;;;5040806;28;20136;-63
2021/12/09 04:29:48;;;;;;;;;;;;;;;;;;5042986;28;20124;-63
2021/12/09 04:32:14;;;;;;;32.25;15.30;;;;;;;;;;5036814;28;19976;-63
2021/12/09 04:34:41;;;;;;;27.00;14.18;;;;;;;;;;5038660;28;20111;-63
2021/12/09 04:37:08;;;;;;;24.13;12.55;;;;;;;;;;5044514;28;20115;-63
2021/12/09 04:39:35;;;;;;;28.73;14.60;;;;;;;;;;5035485;28;20112;-63
2021/12/09 04:42:01;;;;;;;28.48;13.57;;;;;;;;;;5040963;28;20133;-63
2021/12/09 04:44:28;;;;;;;24.92;12.20;;;;;;;;;;5041644;28;20056;-62
2021/12/09 04:46:56;;;;;;;26.42;14.63;;;;;;;;;;5042350;28;20092;-62
2021/12/09 04:49:23;;;;;;;28.58;14.80;;;;;;;;;;5035242;28;20057;-63
2021/12/09 04:51:50;;;;;;;24.30;14.23;;;;;;;;;;5033900;28;20050;-63
2021/12/09 04:54:16;;;;;;;28.45;14.02;;;;;;;;;;5035698;28;20120;-63
2021/12/09 04:56:43;;;;;;;33.55;14.85;;;;;;;;;;5039179;28;20136;-63
2021/12/09 04:59:10;;;;;;;31.17;15.13;;;;;;;;;;5042204;28;20048;-63
2021/12/09 05:01:37;;;;;;;26.38;14.18;;;;;;;;;;5038644;28;20081;-62
2021/12/09 05:04:04;;;;;;;26.27;14.83;;;;;;;;;;5041231;28;20080;-63
2021/12/09 05:06:31;;;;;;;28.50;14.57;;;;;;;;;;5041633;28;20794;-63
2021/12/09 05:08:59;;;;;;;29.27;15.43;;;;;;;;;;5037141;28;20524;-63
2021/12/09 05:14:05;;;;;;;29.60;15.23;;;;;;;;;;5039389;28;20171;-63
2021/12/09 05:16:32;;;;;;;30.17;14.65;;;;;;;;;;5037184;28;20132;-63
2021/12/09 05:18:58;;;;;;;34.15;15.00;;;;;;;;;;5035279;28;20182;-63
2021/12/09 05:21:28;;;;;;;29.80;15.52;;;;;;;;;;5038488;28;20048;-63
2021/12/09 05:23:56;;;;;;;30.88;14.70;;;;;;;;;;5037462;28;20568;-63
2021/12/09 05:26:27;;;;;;;31.40;15.02;;;;;;;;;;5034806;28;20080;-63
2021/12/09 05:28:56;;;;;;;28.80;14.57;;;;;;;;;;5034438;28;20128;-63
2021/12/09 05:34:09;;;;;;;31.02;14.95;;;;;;;;;;5040578;28;20477;-63
2021/12/09 05:36:35;;;;;;;23.17;11.70;;;;;;;;;;5041876;28;20140;-63
2021/12/09 05:39:03;;;;;;;31.25;14.40;;;;;;;;;;5040921;28;20128;-63
2021/12/09 05:41:31;;;;;;;29.25;13.88;;;;;;;;;;5042877;28;20501;-63
2021/12/09 05:43:57;;;;;;;32.28;15.05;;;;;;;;;;5043371;28;20507;-63
2021/12/09 05:46:23;;;;;;;32.33;15.30;;;;;;;;;;5043966;28;20079;-63
2021/12/09 05:48:50;;;;;;;33.13;14.30;;;;;;;;;;5043793;28;20063;-63
2021/12/09 05:51:17;;;;;;;31.47;13.67;;;;;;;;;;5042104;28;20508;-63
2021/12/09 05:53:44;;;;;;;34.55;14.82;;;;;;;;;;5045035;28;20243;-63
2021/12/09 05:56:11;;;;;;;21.63;11.02;;;;;;;;;;5044984;28;20122;-63
2021/12/09 05:58:37;;;;;;;29.93;14.73;;;;;;;;;;5041397;28;20077;-63
2021/12/09 06:01:05;;;;;;;27.33;13.32;;;;;;;;;;5042449;28;20049;-63
2021/12/09 06:03:33;;;;;;;29.27;13.57;;;;;;;;;;5039560;28;20041;-62
2021/12/09 06:06:05;;;;;;;24.98;12.63;;;;;;;;;;5038342;28;20140;-63
2021/12/09 06:08:32;;;;;;;30.47;14.07;;;;;;;;;;5043315;28;20072;-62
2021/12/09 06:11:00;;;;;;;25.58;13.82;;;;;;;;;;5043358;28;20049;-63
2021/12/09 06:13:30;;;;;;;29.98;12.57;;;;;;;;;;5037280;28;20052;-63
2021/12/09 06:15:57;;;;;;;23.02;12.52;;;;;;;;;;5040315;28;20156;-62
2021/12/09 06:18:24;;;;;;;24.88;12.30;;;;;;;;;;5044914;28;20132;-63
2021/12/09 06:20:50;;;;;;;30.98;13.23;;;;;;;;;;5045425;28;20139;-63
2021/12/09 06:23:17;;;;;;;32.47;13.25;;;;;;;;;;5045615;28;20484;-63
2021/12/09 06:25:44;;;;;;;30.02;12.60;;;;;;;;;;5029857;28;20168;-63
2021/12/09 06:28:11;;;;;;;26.98;11.70;;;;;;;;;;5037749;28;20643;-62
2021/12/09 06:30:38;;;;;;;21.10;11.10;;;;;;;;;;5037988;28;20494;-63
2021/12/09 06:33:05;;;;;;;23.75;11.68;;;;;;;;;;5036974;28;20580;-63
2021/12/09 06:35:32;;;;;;;24.42;11.20;;;;;;;;;;5039887;28;20156;-63
2021/12/09 06:38:00;;;;;;;21.58;10.90;;;;;;;;;;5037741;28;20160;-62
2021/12/09 06:40:27;;;;;;;24.88;11.60;;;;;;;;;;5040577;28;20059;-63
2021/12/09 06:42:53;;;;;;;21.33;10.77;;;;;;;;;;5038612;28;20407;-62
2021/12/09 06:45:21;;;;;;;25.92;10.65;;;;;;;;;;5038673;28;20135;-63
2021/12/09 06:47:48;;;;;;;22.02;10.32;;;;;;;;;;5037835;28;20152;-63
2021/12/09 06:50:16;;;;;;;21.20;10.07;;;;;;;;;;5037985;28;20148;-63
2021/12/09 06:52:43;;;;;;;19.55;10.00;;;;;;;;;;5038368;28;20140;-63
2021/12/09 06:55:12;;;;;;;22.25;10.20;;;;;;;;;;5035791;28;20057;-62
2021/12/09 06:57:39;;;;;;;21.95;10.23;;;;;;;;;;5037621;28;20049;-63
2021/12/09 07:00:06;;;;;;;21.05;9.70;;;;;;;;;;5038105;28;20871;-63
2021/12/09 07:02:33;;;;;;;;;;;;;;;;;;5037785;28;20241;-63
2021/12/09 07:04:59;;;;;;;21.92;8.95;;;;;;;;;;5037002;28;20019;-62
2021/12/09 07:07:27;;;;;;;22.45;9.32;;;;;;;;;;5038065;28;20136;-63
2021/12/09 07:09:53;;;;;;;19.57;8.97;;;;;;;;;;5037820;28;20971;-63
2021/12/09 07:12:20;;;;;;;20.48;8.85;;;;;;;;;;5037513;28;20044;-63
2021/12/09 07:14:47;;;;;;;18.83;9.05;;;;;;;;;;5038344;28;20945;-63
2021/12/09 07:17:13;;;;;;;17.70;7.60;;;;;;;;;;5038664;28;20059;-63
2021/12/09 07:19:40;;;;;;;19.13;8.07;;;;;;;;;;5037115;28;20562;-62
2021/12/09 07:22:06;;;;;;;18.17;8.27;;;;;;;;;;5037501;28;20478;-63
2021/12/09 07:24:33;;;;;;;15.30;8.15;;;;;;;;;;5035782;28;20049;-63
2021/12/09 07:27:00;;;;;;;17.73;8.05;;;;;;;;;;5036981;28;20095;-63
2021/12/09 07:29:28;;;;;;;16.42;7.82;;;;;;;;;;5037408;28;20068;-62
2021/12/09 07:31:55;;;;;;;15.43;8.13;;;;;;;;;;5037298;28;20191;-62
2021/12/09 07:34:22;;;;;;;15.52;6.95;;;;;;;;;;5037175;28;20049;-63
2021/12/09 07:36:48;;;;;;;17.92;7.22;;;;;;;;;;5037370;28;20146;-62
2021/12/09 07:39:15;;;;;;;15.98;7.28;;;;;;;;;;5036648;28;20060;-62
2021/12/09 07:41:41;;;;;;;14.10;7.20;;;;;;;;;;5037146;28;20145;-63
2021/12/09 07:44:08;;;;;;;18.50;7.93;;;;;;;;;;5036446;28;20144;-62
2021/12/09 07:46:35;;;;;;;17.73;7.60;;;;;;;;;;5037939;28;20052;-63
2021/12/09 07:49:02;;;;;;;15.70;7.75;;;;;;;;;;5036544;28;20045;-63
2021/12/09 07:51:29;;;;;;;17.20;8.00;;;;;;;;;;5037268;28;21377;-62
2021/12/09 07:53:56;;;;;;;16.83;7.10;;;;;;;;;;5036999;28;22010;-63
2021/12/09 07:56:22;;;;;;;15.13;7.47;;;;;;;;;;5037318;28;20135;-63
2021/12/09 07:58:49;;;;;;;15.57;6.70;;;;;;;;;;5038014;28;20175;-63
2021/12/09 08:01:15;;;;;;;17.30;7.30;;;;;;;;;;5036933;28;20132;-63
2021/12/09 08:03:42;;;;;;;15.07;5.93;;;;;;;;;;5037090;28;20456;-63
2021/12/09 08:06:09;;;;;;;16.67;8.07;;;;;;;;;;5036884;28;20065;-63
2021/12/09 08:08:35;;;;;;;18.33;7.50;;;;;;;;;;5036013;28;20049;-62
2021/12/09 08:11:02;;;;;;;15.68;6.07;;;;;;;;;;5035676;28;20143;-63
2021/12/09 08:13:30;;;;;;;16.43;6.43;;;;;;;;;;5035200;28;20041;-62
2021/12/09 08:15:57;;;;;;;15.27;7.15;;;;;;;;;;5034634;28;20135;-63
2021/12/09 08:18:27;;;;;;;16.58;6.85;;;;;;;;;;5034837;28;20754;-63
2021/12/09 08:20:56;;;;;;;17.42;7.30;;;;;;;;;;5035883;28;20049;-63
2021/12/09 08:23:23;;;;;;;17.40;6.88;;;;;;;;;;5034308;28;20602;-63
2021/12/09 08:25:49;;;;;;;18.95;7.15;;;;;;;;;;5030058;28;22509;-63
2021/12/09 08:28:16;;;;;;;18.95;6.32;;;;;;;;;;5026604;28;20088;-63
2021/12/09 08:30:43;;;;;;;13.45;6.60;;;;;;;;;;5027053;28;20069;-63
2021/12/09 08:33:21;;;;;;;15.02;6.53;;;;;;;;;;5023361;28;20063;-62
2021/12/09 08:35:48;;;;;;;16.13;6.30;;;;;;;;;;5041288;28;20122;-63
2021/12/09 08:38:15;;;;;;;15.98;6.50;;;;;;;;;;5039183;28;20563;-63
2021/12/09 08:40:42;;;;;;;10.90;5.07;;;;;;;;;;5034007;28;20557;-63
2021/12/09 08:43:10;;;;;;;10.98;5.90;;;;;;;;;;5022450;28;20053;-62
2021/12/09 08:45:36;;;;;;;18.90;7.40;;;;;;;;;;5025061;28;20551;-63
2021/12/09 08:48:04;;;;;;;18.58;6.38;;;;;;;;;;5019913;28;20337;-63
2021/12/09 08:50:35;;;;;;;17.48;7.00;;;;;;;;;;5039611;28;20041;-63
2021/12/09 08:53:03;;;;;;;17.88;6.40;;;;;;;;;;5042253;28;20141;-62
2021/12/09 08:55:30;;;;;;;16.05;6.55;;;;;;;;;;5043396;28;20049;-63
2021/12/09 08:57:57;;;;;;;17.60;7.20;;;;;;;;;;5043433;28;20049;-63
2021/12/09 09:00:26;;;;;;;16.88;6.40;;;;;;;;;;5039133;28;20124;-63
2021/12/09 09:02:56;;;;;;;14.07;6.60;;;;;;;;;;5039371;28;20203;-63
2021/12/09 09:05:24;;;;;;;15.65;6.72;;;;;;;;;;5042409;28;20457;-63
2021/12/09 09:07:50;;;;;;;15.10;6.65;;;;;;;;;;5040549;28;20132;-63
2021/12/09 09:10:19;;;;;;;11.97;5.43;;;;;;;;;;5044825;28;20079;-63
2021/12/09 09:12:46;;;;;;;12.50;6.28;;;;;;;;;;5036659;28;20327;-62
2021/12/09 09:15:14;;;;;;;16.23;6.60;;;;;;;;;;5050337;28;20128;-62
2021/12/09 09:17:41;;;;;;;15.18;6.00;;;;;;;;;;5038465;28;20128;-63
2021/12/09 09:20:09;;;;;;;15.82;5.85;;;;;;;;;;5037528;28;20077;-63
2021/12/09 09:22:35;;;;;;;;;;;;;;;;;;5044300;28;20136;-63
2021/12/09 09:25:02;;;;;;;13.52;5.90;;;;;;;;;;5046624;28;20047;-62
2021/12/09 09:27:29;;;;;;;14.00;5.82;;;;;;;;;;5045844;28;20053;-63
2021/12/09 09:29:55;;;;;;;15.52;5.78;;;;;;;;;;5043579;28;20076;-63
2021/12/09 09:32:22;;;;;;;16.65;6.28;;;;;;;;;;5050378;28;20049;-63
2021/12/09 09:34:49;;;;;;;13.98;5.55;;;;;;;;;;5043429;28;20052;-63
2021/12/09 09:37:16;;;;;;;11.40;5.35;;;;;;;;;;5044251;28;20169;-63
2021/12/09 09:39:44;;;;;;;11.80;5.18;;;;;;;;;;5041941;28;20085;-63
2021/12/09 09:44:54;;;;;;;12.77;5.82;;;;;;;;;;5044421;28;20087;-63
2021/12/09 09:47:22;;;;;;;14.85;5.63;;;;;;;;;;5043292;28;20107;-62
2021/12/09 09:49:48;;;;;;;;;;;;;;;;;;5042254;28;20047;-63
2021/12/09 09:52:15;;;;;;;13.35;5.35;;;;;;;;;;5037892;28;19924;-63
2021/12/09 09:54:42;;;;;;;13.82;5.25;;;;;;;;;;5036745;28;20311;-63
2021/12/09 09:57:09;;;;;;;16.67;5.38;;;;;;;;;;5036418;28;20136;-63
2021/12/09 09:59:36;;;;;;;15.93;5.63;;;;;;;;;;5037425;28;20133;-63
2021/12/09 10:02:03;;;;;;;10.13;5.05;;;;;;;;;;5037908;28;20151;-62
2021/12/09 10:04:38;;;;;;;10.40;4.90;;;;;;;;;;5036062;28;20049;-63
2021/12/09 10:07:05;;;;;;;14.45;5.25;;;;;;;;;;5037955;28;20049;-63
2021/12/09 10:09:32;;;;;;;17.08;5.38;;;;;;;;;;5037796;28;20128;-62
2021/12/09 10:12:00;;;;;;;15.52;5.13;;;;;;;;;;5043416;28;20136;-63
2021/12/09 10:14:28;;;;;;;12.45;5.22;;;;;;;;;;5044451;28;20048;-63
2021/12/09 10:17:11;;;;;;;11.65;5.15;;;;;;;;;;5043294;28;20080;-63
2021/12/09 10:19:57;;;;;;;9.40;4.65;;;;;;;;;;5042394;28;20083;-63
2021/12/09 10:22:34;;;;;;;14.57;4.70;;;;;;;;;;5045785;28;20107;-62
2021/12/09 10:25:14;;;;;;;14.57;5.15;;;;;;;;;;5047815;28;20050;-63
2021/12/09 10:27:44;;;;;;;12.40;5.22;;;;;;;;;;5047143;28;20144;-62
2021/12/09 10:30:14;;;;;;;13.38;4.60;;;;;;;;;;5043525;28;20132;-63
2021/12/09 10:32:41;;;;;;;11.75;4.80;;;;;;;;;;5040317;28;20140;-63
2021/12/09 10:35:07;;;;;;;11.30;4.38;;;;;;;;;;5047827;28;20086;-62
2021/12/09 10:37:35;;;;;;;6.55;3.45;;;;;;;;;;5046568;28;20089;-62
2021/12/09 10:40:10;;;;;;;13.60;4.65;;;;;;;;;;5049425;28;20132;-63
2021/12/09 10:42:39;;;;;;;9.27;4.03;;;;;;;;;;5045761;28;20119;-63
2021/12/09 10:45:07;;;;;;;10.80;3.75;;;;;;;;;;5041588;28;20728;-63
2021/12/09 10:53:30;;;;;;;8.18;3.75;;;;;;;;;;5017068;28;20147;-63
2021/12/09 10:55:57;;;;;;;9.43;3.88;;;;;;;;;;5040157;28;20501;-62
2021/12/09 10:58:31;;;;;;;10.02;3.70;;;;;;;;;;5044830;28;20499;-62
2021/12/09 11:01:04;;;;;;;10.15;4.45;;;;;;;;;;5043333;28;20056;-63
2021/12/09 11:03:40;;;;;;;12.07;4.07;;;;;;;;;;5043591;28;20136;-62
2021/12/09 11:06:08;;;;;;;12.05;4.47;;;;;;;;;;5039321;28;20132;-63
2021/12/09 11:08:43;;;;;;;11.40;4.55;;;;;;;;;;5034462;28;20075;-63
2021/12/09 11:11:10;;;;;;;10.93;5.07;;;;;;;;;;5039207;28;20137;-62
2021/12/09 11:13:48;;;;;;;17.88;4.63;;;;;;;;;;5035958;28;20085;-62
2021/12/09 11:16:27;;;;;;;9.20;3.97;;;;;;;;;;5041927;28;20501;-63
2021/12/09 11:18:57;;;;;;;12.25;4.18;;;;;;;;;;5043042;28;20084;-63
2021/12/09 11:21:29;;;;;;;16.48;4.63;;;;;;;;;;5043400;28;20072;-63
2021/12/09 11:24:03;;;;;;;7.95;3.55;;;;;;;;;;5039826;28;20087;-62
2021/12/09 11:26:47;;;;;;;9.25;4.10;;;;;;;;;;5040190;28;20076;-63
2021/12/09 11:29:18;;;;;;;12.05;3.92;;;;;;;;;;5041840;28;20080;-63
2021/12/09 11:31:55;;;;;;;13.38;4.18;;;;;;;;;;5041491;28;20492;-63
2021/12/09 11:34:26;;;;;;;10.95;3.70;;;;;;;;;;5044105;28;20084;-63
2021/12/09 11:36:55;;;;;;;11.00;4.18;;;;;;;;;;5042505;28;20132;-63
2021/12/09 11:39:29;;;;;;;9.32;3.58;;;;;;;;;;5044464;28;20083;-63
2021/12/09 11:42:05;;;;;;;12.93;3.85;;;;;;;;;;5043426;28;20091;-63
2021/12/09 11:44:51;;;;;;;9.75;3.28;;;;;;;;;;5041504;28;20049;-63
2021/12/09 11:47:18;;;;;;;9.48;3.58;;;;;;;;;;5040734;28;20049;-63
2021/12/09 11:50:05;;;;;;;7.35;3.65;;;;;;;;;;5043515;28;20385;-62
2021/12/09 11:52:32;;;;;;;;;;;;;;;;;;5037314;28;20132;-63
2021/12/09 11:55:03;;;;;;;11.90;3.33;;;;;;;;;;5041575;28;19964;-62
2021/12/09 11:57:37;;;;;;;8.90;3.40;;;;;;;;;;5047139;28;20175;-62
2021/12/09 12:11:59;;;;;;;6.55;2.90;;;;;;;;;;5036331;28;20045;-63
2021/12/09 12:14:45;;;;;;;9.43;3.53;;;;;;;;;;5038988;28;20483;-62
2021/12/09 12:17:20;;;;;;;7.07;3.13;;;;;;;;;;5043878;28;20099;-62
2021/12/09 12:19:53;;;;;;;12.68;3.47;;;;;;;;;;5045619;28;20149;-62
2021/12/09 12:22:43;;;;;;;11.38;3.25;;;;;;;;;;5043357;28;20084;-62
2021/12/09 12:25:34;;;;;;;10.88;4.20;;;;;;;;;;5041809;28;20138;-62
2021/12/09 12:29:14;;;;;;;9.23;3.42;;;;;;;;;;5041668;28;20480;-63
2021/12/09 12:31:41;;;;;;;10.40;3.25;;;;;;;;;;5025757;28;20099;-62
2021/12/09 12:39:44;;;;;;;5.30;3.10;;;;;;;;;;5039863;28;20489;-62
2021/12/09 12:42:17;;;;;;;8.32;3.20;;;;;;;;;;5039577;28;20514;-62
2021/12/09 12:45:03;;;;;;;8.75;3.63;;;;;;;;;;5040743;28;20140;-62
2021/12/09 12:47:38;;;;;;;11.85;3.83;;;;;;;;;;5041147;28;20468;-62
2021/12/09 12:50:09;;;;;;;14.98;3.63;;;;;;;;;;5038623;28;20132;-62
2021/12/09 12:52:38;;;;;;;12.50;3.92;;;;;;;;;;5048208;28;20579;-62
2021/12/09 12:55:11;;;;;;;6.75;3.42;;;;;;;;;;5044949;28;20495;-62
2021/12/09 12:57:42;;;;;;;10.55;3.83;;;;;;;;;;5043007;28;20048;-63
2021/12/09 13:00:08;;;;;;;15.93;4.72;;;;;;;;;;5043369;28;20144;-62
2021/12/09 13:10:50;;;;;;;10.93;3.58;;;;;;;;;;5040539;28;20128;-62
2021/12/09 13:16:01;;;;;;;6.32;3.25;;;;;;;;;;5045226;28;20045;-62
2021/12/09 13:19:12;;;;;;;9.80;3.95;;;;;;;;;;5048562;28;20163;-62
2021/12/09 13:21:51;;;;;;;8.82;3.97;;;;;;;;;;5047246;28;20144;-62
2021/12/09 13:24:27;;;;;;;10.43;3.80;;;;;;;;;;5044061;28;20151;-62
2021/12/09 13:27:09;;;;;;;7.82;3.55;;;;;;;;;;5045091;28;20152;-62
2021/12/09 13:29:54;;;;;;;10.45;3.75;;;;;;;;;;5045507;28;20248;-63
2021/12/09 13:35:17;;;;;;;12.27;3.70;;;;;;;;;;5049082;28;20173;-62
2021/12/09 13:38:07;;;;;;;15.93;3.80;;;;;;;;;;5037099;28;20149;-62
2021/12/09 13:48:56;;;;;;;5.63;3.03;;;;;;;;;;5043990;28;20508;-62
2021/12/09 13:51:51;;;;;;;11.70;4.13;;;;;;;;;;5046672;28;20382;-62
2021/12/09 13:56:46;;;;;;;10.20;3.80;;;;;;;;;;5038606;28;20084;-62
2021/12/09 13:59:15;;;;;;;6.00;2.65;;;;;;;;;;5027675;28;20585;-62
2021/12/09 14:01:42;;;;;;;12.07;3.67;;;;;;;;;;5043154;28;20084;-62
2021/12/09 14:04:09;;;;;;;10.23;4.20;;;;;;;;;;5041967;28;20134;-62
2021/12/09 14:06:37;;;;;;;13.25;3.80;;;;;;;;;;5044388;28;20049;-62
2021/12/09 14:09:04;;;;;;;;;;;;;;;;;;5044329;28;20049;-63
2021/12/09 14:11:40;;;;;;;7.90;3.10;;;;;;;;;;5049231;28;19924;-62
2021/12/09 14:14:12;;;;;;;10.77;3.78;;;;;;;;;;5052876;28;20102;-63
2021/12/09 14:21:48;;;;;;;10.57;4.28;;;;;;;;;;5046826;28;20091;-62
2021/12/09 14:24:21;;;;;;;8.07;4.18;;;;;;;;;;5032648;28;20065;-62
2021/12/09 14:26:53;;;;;;;13.50;3.50;;;;;;;;;;5040158;28;20053;-62
2021/12/09 14:29:20;;;;;;;8.02;3.70;;;;;;;;;;5038329;28;20092;-62
2021/12/09 14:31:49;;;;;;;10.35;4.03;;;;;;;;;;5041143;28;20500;-62
2021/12/09 14:34:16;;;;;;;13.38;4.50;;;;;;;;;;5040413;28;20435;-62
2021/12/09 14:36:45;;;;;;;11.15;4.00;;;;;;;;;;5049967;28;20053;-62
2021/12/09 14:39:13;;;;;;;13.48;3.92;;;;;;;;;;5045773;28;20480;-62
2021/12/09 14:41:40;;;;;;;13.05;4.05;;;;;;;;;;5045869;28;20050;-62
2021/12/09 14:44:09;;;;;;;12.10;3.50;;;;;;;;;;5046860;28;20073;-62
2021/12/09 14:46:39;;;;;;;7.57;3.45;;;;;;;;;;5042798;28;20049;-63
2021/12/09 14:49:14;;;;;;;6.32;3.20;;;;;;;;;;5044975;28;20851;-63
2021/12/09 14:51:42;;;;;;;16.52;4.53;;;;;;;;;;5041979;28;20076;-62
2021/12/09 14:54:09;;;;;;;11.77;3.83;;;;;;;;;;5046600;28;20472;-62
2021/12/09 14:56:40;;;;;;;13.57;4.72;;;;;;;;;;5041326;28;20045;-62
2021/12/09 14:59:17;;;;;;;11.75;4.20;;;;;;;;;;5047554;28;20135;-62
2021/12/09 15:01:45;;;;;;;13.30;4.43;;;;;;;;;;5049291;28;20087;-62
2021/12/09 15:04:17;;;;;;;10.43;4.47;;;;;;;;;;5038109;28;20099;-63
2021/12/09 15:06:53;;;;;;;9.23;4.30;;;;;;;;;;5041804;28;20111;-62
2021/12/09 15:09:21;;;;;;;10.00;4.28;;;;;;;;;;5037141;28;20099;-62
2021/12/09 15:11:49;;;;;;;18.38;4.10;;;;;;;;;;5046410;28;20114;-62
2021/12/09 15:14:19;;;;;;;16.15;4.57;;;;;;;;;;5041365;28;20049;-62
2021/12/09 15:16:46;;;;;;;10.02;3.85;;;;;;;;;;5045303;28;20073;-62
2021/12/09 15:19:19;;;;;;;14.50;4.57;;;;;;;;;;5042659;28;20525;-62
2021/12/09 15:22:06;;;;;;;11.68;4.40;;;;;;;;;;5036726;28;20471;-62
2021/12/09 15:24:33;;;;;;;14.80;4.70;;;;;;;;;;5029416;28;20132;-62
2021/12/09 15:27:00;;;;;;;15.88;5.28;;;;;;;;;;5019893;28;20042;-63
2021/12/09 15:29:26;;;;;;;8.50;4.23;;;;;;;;;;5027623;28;20148;-63
2021/12/09 15:32:06;;;;;;;10.90;4.00;;;;;;;;;;5083335;27;20139;-62
2021/12/09 15:34:38;;;;;;;14.35;4.13;;;;;;;;;;5073922;28;20135;-64
2021/12/09 15:37:07;;;;;;;14.35;4.45;;;;;;;;;;5074196;28;20059;-64
2021/12/09 15:39:35;;;;;;;9.00;4.00;;;;;;;;;;5079060;28;20563;-64
2021/12/09 15:42:04;;;;;;;14.35;4.80;;;;;;;;;;5072370;28;20591;-64